sensor_id;sensor_type;location;lat;lon;timestamp;P1;durP1;ratioP1;P2;durP2;ratioP2
19778;SDS011;10049;59.306;18.090;2023-05-16T00:02:07;7.93;;;2.10;;
19778;SDS011;10049;59.306;18.090;2023-05-16T00:04:34;2.20;;;2.00;;
19778;SDS011;10049;59.306;18.090;2023-05-16T00:07:02;4.45;;;2.15;;
19778;SDS011;10049;59.306;18.090;2023-05-16T00:09:30;5.45;;;2.28;;
19778;SDS011;10049;59.306;18.090;2023-05-16T00:11:57;2.75;;;2.25;;
19778;SDS011;10049;59.306;18.090;2023-05-16T00:14:26;5.40;;;2.17;;
19778;SDS011;10049;59.306;18.090;2023-05-16T00:16:54;3.63;;;2.08;;
19778;SDS011;10049;59.306;18.090;2023-05-16T00:19:22;4.82;;;1.90;;
19778;SDS011;10049;59.306;18.090;2023-05-16T00:21:50;3.55;;;2.10;;
19778;SDS011;10049;59.306;18.090;2023-05-16T00:24:18;2.17;;;1.98;;
19778;SDS011;10049;59.306;18.090;2023-05-16T00:26:46;2.45;;;2.08;;
19778;SDS011;10049;59.306;18.090;2023-05-16T00:29:13;4.50;;;2.10;;
19778;SDS011;10049;59.306;18.090;2023-05-16T00:31:42;2.90;;;2.10;;
19778;SDS011;10049;59.306;18.090;2023-05-16T00:34:09;7.20;;;2.03;;
19778;SDS011;10049;59.306;18.090;2023-05-16T00:36:37;3.70;;;2.20;;
19778;SDS011;10049;59.306;18.090;2023-05-16T00:39:04;2.40;;;2.20;;
19778;SDS011;10049;59.306;18.090;2023-05-16T00:41:32;2.47;;;2.10;;
19778;SDS011;10049;59.306;18.090;2023-05-16T00:44:00;3.05;;;2.10;;
19778;SDS011;10049;59.306;18.090;2023-05-16T00:46:27;4.55;;;1.90;;
19778;SDS011;10049;59.306;18.090;2023-05-16T00:48:56;2.72;;;1.92;;
19778;SDS011;10049;59.306;18.090;2023-05-16T00:51:24;3.22;;;2.67;;
19778;SDS011;10049;59.306;18.090;2023-05-16T00:53:52;2.80;;;2.28;;
19778;SDS011;10049;59.306;18.090;2023-05-16T00:56:19;3.95;;;2.30;;
19778;SDS011;10049;59.306;18.090;2023-05-16T00:58:48;7.25;;;2.67;;
19778;SDS011;10049;59.306;18.090;2023-05-16T01:01:15;5.18;;;2.63;;
19778;SDS011;10049;59.306;18.090;2023-05-16T01:03:44;6.97;;;2.30;;
19778;SDS011;10049;59.306;18.090;2023-05-16T01:06:13;4.63;;;2.17;;
19778;SDS011;10049;59.306;18.090;2023-05-16T01:08:41;2.92;;;2.05;;
19778;SDS011;10049;59.306;18.090;2023-05-16T01:11:11;3.55;;;2.35;;
19778;SDS011;10049;59.306;18.090;2023-05-16T01:13:42;4.18;;;2.47;;
19778;SDS011;10049;59.306;18.090;2023-05-16T01:16:15;3.08;;;2.50;;
19778;SDS011;10049;59.306;18.090;2023-05-16T01:18:46;3.22;;;2.10;;
19778;SDS011;10049;59.306;18.090;2023-05-16T01:21:22;3.70;;;2.10;;
19778;SDS011;10049;59.306;18.090;2023-05-16T01:23:58;4.63;;;2.35;;
19778;SDS011;10049;59.306;18.090;2023-05-16T01:26:28;2.30;;;2.10;;
19778;SDS011;10049;59.306;18.090;2023-05-16T01:28:56;2.50;;;2.00;;
19778;SDS011;10049;59.306;18.090;2023-05-16T01:31:24;6.75;;;2.30;;
19778;SDS011;10049;59.306;18.090;2023-05-16T01:33:52;2.65;;;2.30;;
19778;SDS011;10049;59.306;18.090;2023-05-16T01:36:24;2.40;;;2.10;;
19778;SDS011;10049;59.306;18.090;2023-05-16T01:38:58;2.47;;;1.95;;
19778;SDS011;10049;59.306;18.090;2023-05-16T01:41:29;3.75;;;2.45;;
19778;SDS011;10049;59.306;18.090;2023-05-16T01:43:59;3.10;;;2.38;;
19778;SDS011;10049;59.306;18.090;2023-05-16T01:46:30;3.25;;;2.28;;
19778;SDS011;10049;59.306;18.090;2023-05-16T01:49:01;3.85;;;2.45;;
19778;SDS011;10049;59.306;18.090;2023-05-16T01:51:31;2.67;;;2.03;;
19778;SDS011;10049;59.306;18.090;2023-05-16T01:54:01;3.13;;;2.20;;
19778;SDS011;10049;59.306;18.090;2023-05-16T01:56:33;2.17;;;1.90;;
19778;SDS011;10049;59.306;18.090;2023-05-16T01:59:01;3.03;;;2.10;;
19778;SDS011;10049;59.306;18.090;2023-05-16T02:01:29;4.38;;;2.10;;
19778;SDS011;10049;59.306;18.090;2023-05-16T02:03:56;4.05;;;2.17;;
19778;SDS011;10049;59.306;18.090;2023-05-16T02:06:24;4.05;;;2.17;;
19778;SDS011;10049;59.306;18.090;2023-05-16T02:08:51;2.20;;;1.90;;
19778;SDS011;10049;59.306;18.090;2023-05-16T02:11:19;3.17;;;2.10;;
19778;SDS011;10049;59.306;18.090;2023-05-16T02:13:48;3.67;;;2.00;;
19778;SDS011;10049;59.306;18.090;2023-05-16T02:16:16;4.85;;;1.88;;
19778;SDS011;10049;59.306;18.090;2023-05-16T02:18:43;4.00;;;2.20;;
19778;SDS011;10049;59.306;18.090;2023-05-16T02:21:11;3.88;;;2.00;;
19778;SDS011;10049;59.306;18.090;2023-05-16T02:23:38;2.30;;;1.90;;
19778;SDS011;10049;59.306;18.090;2023-05-16T02:26:06;5.25;;;2.10;;
19778;SDS011;10049;59.306;18.090;2023-05-16T02:28:33;2.05;;;1.90;;
19778;SDS011;10049;59.306;18.090;2023-05-16T02:31:02;3.05;;;1.90;;
19778;SDS011;10049;59.306;18.090;2023-05-16T02:33:30;2.63;;;2.10;;
19778;SDS011;10049;59.306;18.090;2023-05-16T02:35:57;2.92;;;2.03;;
19778;SDS011;10049;59.306;18.090;2023-05-16T02:38:25;1.90;;;1.80;;
19778;SDS011;10049;59.306;18.090;2023-05-16T02:40:53;3.33;;;2.10;;
19778;SDS011;10049;59.306;18.090;2023-05-16T02:43:20;2.85;;;2.10;;
19778;SDS011;10049;59.306;18.090;2023-05-16T02:45:47;5.00;;;1.90;;
19778;SDS011;10049;59.306;18.090;2023-05-16T02:48:16;1.92;;;1.80;;
19778;SDS011;10049;59.306;18.090;2023-05-16T02:50:44;3.15;;;2.15;;
19778;SDS011;10049;59.306;18.090;2023-05-16T02:53:11;3.00;;;1.90;;
19778;SDS011;10049;59.306;18.090;2023-05-16T02:55:39;2.33;;;1.60;;
19778;SDS011;10049;59.306;18.090;2023-05-16T02:58:06;2.10;;;1.90;;
19778;SDS011;10049;59.306;18.090;2023-05-16T03:00:33;2.50;;;1.92;;
19778;SDS011;10049;59.306;18.090;2023-05-16T03:03:01;8.15;;;2.00;;
19778;SDS011;10049;59.306;18.090;2023-05-16T03:05:31;2.33;;;1.77;;
19778;SDS011;10049;59.306;18.090;2023-05-16T03:07:58;5.78;;;2.00;;
19778;SDS011;10049;59.306;18.090;2023-05-16T03:10:26;4.95;;;2.17;;
19778;SDS011;10049;59.306;18.090;2023-05-16T03:12:53;2.35;;;1.83;;
19778;SDS011;10049;59.306;18.090;2023-05-16T03:15:21;3.40;;;1.85;;
19778;SDS011;10049;59.306;18.090;2023-05-16T03:17:49;6.10;;;1.90;;
19778;SDS011;10049;59.306;18.090;2023-05-16T03:20:16;4.20;;;2.42;;
19778;SDS011;10049;59.306;18.090;2023-05-16T03:22:45;3.88;;;2.10;;
19778;SDS011;10049;59.306;18.090;2023-05-16T03:25:13;2.20;;;2.00;;
19778;SDS011;10049;59.306;18.090;2023-05-16T03:27:40;3.75;;;2.15;;
19778;SDS011;10049;59.306;18.090;2023-05-16T03:30:08;2.92;;;2.03;;
19778;SDS011;10049;59.306;18.090;2023-05-16T03:32:36;4.90;;;2.10;;
19778;SDS011;10049;59.306;18.090;2023-05-16T03:35:04;2.22;;;2.03;;
19778;SDS011;10049;59.306;18.090;2023-05-16T03:37:31;2.25;;;2.05;;
19778;SDS011;10049;59.306;18.090;2023-05-16T03:40:00;3.85;;;2.10;;
19778;SDS011;10049;59.306;18.090;2023-05-16T03:42:29;3.20;;;2.20;;
19778;SDS011;10049;59.306;18.090;2023-05-16T03:44:58;3.17;;;2.20;;
19778;SDS011;10049;59.306;18.090;2023-05-16T03:47:25;2.72;;;2.10;;
19778;SDS011;10049;59.306;18.090;2023-05-16T03:49:55;2.65;;;1.95;;
19778;SDS011;10049;59.306;18.090;2023-05-16T03:52:23;6.13;;;2.28;;
19778;SDS011;10049;59.306;18.090;2023-05-16T03:54:50;2.95;;;2.40;;
19778;SDS011;10049;59.306;18.090;2023-05-16T03:57:19;2.90;;;1.70;;
19778;SDS011;10049;59.306;18.090;2023-05-16T03:59:46;2.35;;;2.00;;
19778;SDS011;10049;59.306;18.090;2023-05-16T04:02:14;4.97;;;2.20;;
19778;SDS011;10049;59.306;18.090;2023-05-16T04:04:41;2.45;;;2.05;;
19778;SDS011;10049;59.306;18.090;2023-05-16T04:07:10;3.17;;;1.90;;
19778;SDS011;10049;59.306;18.090;2023-05-16T04:09:37;2.13;;;1.80;;
19778;SDS011;10049;59.306;18.090;2023-05-16T04:12:05;2.58;;;1.90;;
19778;SDS011;10049;59.306;18.090;2023-05-16T04:14:34;2.03;;;1.85;;
19778;SDS011;10049;59.306;18.090;2023-05-16T04:17:01;2.15;;;1.90;;
19778;SDS011;10049;59.306;18.090;2023-05-16T04:19:29;5.07;;;1.90;;
19778;SDS011;10049;59.306;18.090;2023-05-16T04:21:56;2.92;;;1.63;;
19778;SDS011;10049;59.306;18.090;2023-05-16T04:24:23;4.00;;;1.80;;
19778;SDS011;10049;59.306;18.090;2023-05-16T04:26:53;2.05;;;1.85;;
19778;SDS011;10049;59.306;18.090;2023-05-16T04:29:20;2.75;;;1.88;;
19778;SDS011;10049;59.306;18.090;2023-05-16T04:31:49;2.53;;;2.10;;
19778;SDS011;10049;59.306;18.090;2023-05-16T04:34:17;2.15;;;1.95;;
19778;SDS011;10049;59.306;18.090;2023-05-16T04:36:45;3.58;;;1.75;;
19778;SDS011;10049;59.306;18.090;2023-05-16T04:39:12;2.80;;;1.90;;
19778;SDS011;10049;59.306;18.090;2023-05-16T04:41:40;3.50;;;1.83;;
19778;SDS011;10049;59.306;18.090;2023-05-16T04:44:07;2.30;;;2.05;;
19778;SDS011;10049;59.306;18.090;2023-05-16T04:46:35;2.85;;;2.10;;
19778;SDS011;10049;59.306;18.090;2023-05-16T04:49:07;3.00;;;2.30;;
19778;SDS011;10049;59.306;18.090;2023-05-16T04:51:38;3.42;;;2.17;;
19778;SDS011;10049;59.306;18.090;2023-05-16T04:54:06;7.05;;;2.45;;
19778;SDS011;10049;59.306;18.090;2023-05-16T04:56:34;3.13;;;2.20;;
19778;SDS011;10049;59.306;18.090;2023-05-16T04:59:02;2.47;;;2.25;;
19778;SDS011;10049;59.306;18.090;2023-05-16T05:01:29;2.50;;;2.30;;
19778;SDS011;10049;59.306;18.090;2023-05-16T05:03:58;3.00;;;2.33;;
19778;SDS011;10049;59.306;18.090;2023-05-16T05:06:28;3.58;;;2.42;;
19778;SDS011;10049;59.306;18.090;2023-05-16T05:08:58;2.72;;;2.33;;
19778;SDS011;10049;59.306;18.090;2023-05-16T05:11:40;3.85;;;2.40;;
19778;SDS011;10049;59.306;18.090;2023-05-16T05:14:12;4.80;;;2.50;;
19778;SDS011;10049;59.306;18.090;2023-05-16T05:16:52;2.47;;;2.28;;
19778;SDS011;10049;59.306;18.090;2023-05-16T05:19:28;4.05;;;2.28;;
19778;SDS011;10049;59.306;18.090;2023-05-16T05:21:59;5.10;;;2.67;;
19778;SDS011;10049;59.306;18.090;2023-05-16T05:24:28;2.70;;;2.38;;
19778;SDS011;10049;59.306;18.090;2023-05-16T05:26:55;2.90;;;2.28;;
19778;SDS011;10049;59.306;18.090;2023-05-16T05:29:23;3.40;;;2.70;;
19778;SDS011;10049;59.306;18.090;2023-05-16T05:31:52;2.80;;;2.40;;
19778;SDS011;10049;59.306;18.090;2023-05-16T05:34:20;4.75;;;2.90;;
19778;SDS011;10049;59.306;18.090;2023-05-16T05:36:47;5.10;;;2.70;;
19778;SDS011;10049;59.306;18.090;2023-05-16T05:39:17;3.55;;;2.78;;
19778;SDS011;10049;59.306;18.090;2023-05-16T05:41:47;2.97;;;2.67;;
19778;SDS011;10049;59.306;18.090;2023-05-16T05:44:17;3.25;;;2.75;;
19778;SDS011;10049;59.306;18.090;2023-05-16T05:46:45;3.17;;;2.55;;
19778;SDS011;10049;59.306;18.090;2023-05-16T05:49:13;3.67;;;2.90;;
19778;SDS011;10049;59.306;18.090;2023-05-16T05:51:40;4.50;;;3.20;;
19778;SDS011;10049;59.306;18.090;2023-05-16T05:54:11;3.08;;;2.78;;
19778;SDS011;10049;59.306;18.090;2023-05-16T05:56:40;5.68;;;2.90;;
19778;SDS011;10049;59.306;18.090;2023-05-16T05:59:08;3.50;;;3.20;;
19778;SDS011;10049;59.306;18.090;2023-05-16T06:01:36;7.97;;;3.28;;
19778;SDS011;10049;59.306;18.090;2023-05-16T06:04:03;7.28;;;3.40;;
19778;SDS011;10049;59.306;18.090;2023-05-16T06:06:31;4.30;;;3.30;;
19778;SDS011;10049;59.306;18.090;2023-05-16T06:08:58;3.50;;;3.20;;
19778;SDS011;10049;59.306;18.090;2023-05-16T06:11:26;4.03;;;3.13;;
19778;SDS011;10049;59.306;18.090;2023-05-16T06:13:55;3.35;;;3.00;;
19778;SDS011;10049;59.306;18.090;2023-05-16T06:16:23;4.63;;;3.33;;
19778;SDS011;10049;59.306;18.090;2023-05-16T06:18:50;5.80;;;3.28;;
19778;SDS011;10049;59.306;18.090;2023-05-16T06:21:18;4.15;;;3.25;;
19778;SDS011;10049;59.306;18.090;2023-05-16T06:23:46;5.72;;;3.72;;
19778;SDS011;10049;59.306;18.090;2023-05-16T06:26:13;6.68;;;3.70;;
19778;SDS011;10049;59.306;18.090;2023-05-16T06:28:41;4.53;;;3.53;;
19778;SDS011;10049;59.306;18.090;2023-05-16T06:31:10;4.05;;;3.35;;
19778;SDS011;10049;59.306;18.090;2023-05-16T06:33:38;7.65;;;3.30;;
19778;SDS011;10049;59.306;18.090;2023-05-16T06:36:06;4.47;;;3.20;;
19778;SDS011;10049;59.306;18.090;2023-05-16T06:38:33;4.40;;;3.50;;
19778;SDS011;10049;59.306;18.090;2023-05-16T06:41:01;3.65;;;3.35;;
19778;SDS011;10049;59.306;18.090;2023-05-16T06:43:29;4.50;;;3.10;;
19778;SDS011;10049;59.306;18.090;2023-05-16T06:45:57;3.38;;;3.08;;
19778;SDS011;10049;59.306;18.090;2023-05-16T06:48:28;4.03;;;3.35;;
19778;SDS011;10049;59.306;18.090;2023-05-16T06:50:57;5.30;;;3.22;;
19778;SDS011;10049;59.306;18.090;2023-05-16T06:53:25;3.95;;;3.22;;
19778;SDS011;10049;59.306;18.090;2023-05-16T06:55:53;5.35;;;3.30;;
19778;SDS011;10049;59.306;18.090;2023-05-16T06:58:26;3.90;;;3.50;;
19778;SDS011;10049;59.306;18.090;2023-05-16T07:00:55;3.70;;;3.30;;
19778;SDS011;10049;59.306;18.090;2023-05-16T07:03:25;5.15;;;3.60;;
19778;SDS011;10049;59.306;18.090;2023-05-16T07:05:55;7.47;;;3.38;;
19778;SDS011;10049;59.306;18.090;2023-05-16T07:08:23;7.55;;;3.47;;
19778;SDS011;10049;59.306;18.090;2023-05-16T07:10:51;4.00;;;3.58;;
19778;SDS011;10049;59.306;18.090;2023-05-16T07:13:19;6.75;;;3.83;;
19778;SDS011;10049;59.306;18.090;2023-05-16T07:15:46;9.20;;;3.90;;
19778;SDS011;10049;59.306;18.090;2023-05-16T07:18:13;4.28;;;3.85;;
19778;SDS011;10049;59.306;18.090;2023-05-16T07:20:41;4.43;;;3.75;;
19778;SDS011;10049;59.306;18.090;2023-05-16T07:23:14;5.88;;;3.85;;
19778;SDS011;10049;59.306;18.090;2023-05-16T07:25:46;6.93;;;3.53;;
19778;SDS011;10049;59.306;18.090;2023-05-16T07:28:14;5.97;;;3.55;;
19778;SDS011;10049;59.306;18.090;2023-05-16T07:30:41;7.30;;;3.60;;
19778;SDS011;10049;59.306;18.090;2023-05-16T07:33:09;6.35;;;4.00;;
19778;SDS011;10049;59.306;18.090;2023-05-16T07:35:37;4.90;;;3.70;;
19778;SDS011;10049;59.306;18.090;2023-05-16T07:38:07;4.78;;;3.90;;
19778;SDS011;10049;59.306;18.090;2023-05-16T07:40:37;4.68;;;3.40;;
19778;SDS011;10049;59.306;18.090;2023-05-16T07:43:04;5.00;;;3.42;;
19778;SDS011;10049;59.306;18.090;2023-05-16T07:45:31;5.30;;;3.83;;
19778;SDS011;10049;59.306;18.090;2023-05-16T07:47:59;3.88;;;3.40;;
19778;SDS011;10049;59.306;18.090;2023-05-16T07:50:27;4.50;;;3.85;;
19778;SDS011;10049;59.306;18.090;2023-05-16T07:52:57;4.45;;;3.55;;
19778;SDS011;10049;59.306;18.090;2023-05-16T07:55:25;3.72;;;3.40;;
19778;SDS011;10049;59.306;18.090;2023-05-16T08:01:08;6.88;;;3.78;;
19778;SDS011;10049;59.306;18.090;2023-05-16T08:03:36;6.25;;;3.90;;
19778;SDS011;10049;59.306;18.090;2023-05-16T08:06:03;3.50;;;3.20;;
19778;SDS011;10049;59.306;18.090;2023-05-16T08:08:30;3.90;;;3.15;;
19778;SDS011;10049;59.306;18.090;2023-05-16T08:10:58;3.40;;;3.10;;
19778;SDS011;10049;59.306;18.090;2023-05-16T08:13:25;5.18;;;2.88;;
19778;SDS011;10049;59.306;18.090;2023-05-16T08:15:53;2.90;;;2.60;;
19778;SDS011;10049;59.306;18.090;2023-05-16T08:18:22;3.05;;;2.78;;
19778;SDS011;10049;59.306;18.090;2023-05-16T08:20:49;4.35;;;2.78;;
19778;SDS011;10049;59.306;18.090;2023-05-16T08:23:17;3.17;;;2.75;;
19778;SDS011;10049;59.306;18.090;2023-05-16T08:25:45;2.95;;;2.63;;
19778;SDS011;10049;59.306;18.090;2023-05-16T08:28:13;4.15;;;2.72;;
19778;SDS011;10049;59.306;18.090;2023-05-16T08:30:40;3.65;;;3.00;;
19778;SDS011;10049;59.306;18.090;2023-05-16T08:33:08;3.20;;;2.90;;
19778;SDS011;10049;59.306;18.090;2023-05-16T08:35:37;3.22;;;2.80;;
19778;SDS011;10049;59.306;18.090;2023-05-16T08:38:08;3.50;;;2.80;;
19778;SDS011;10049;59.306;18.090;2023-05-16T08:40:36;2.75;;;2.50;;
19778;SDS011;10049;59.306;18.090;2023-05-16T08:43:05;3.55;;;2.88;;
19778;SDS011;10049;59.306;18.090;2023-05-16T08:45:33;3.65;;;2.85;;
19778;SDS011;10049;59.306;18.090;2023-05-16T08:48:01;3.13;;;2.83;;
19778;SDS011;10049;59.306;18.090;2023-05-16T08:50:31;4.82;;;3.08;;
19778;SDS011;10049;59.306;18.090;2023-05-16T08:53:02;3.20;;;2.90;;
19778;SDS011;10049;59.306;18.090;2023-05-16T08:55:31;3.10;;;2.80;;
19778;SDS011;10049;59.306;18.090;2023-05-16T08:57:59;3.30;;;3.00;;
19778;SDS011;10049;59.306;18.090;2023-05-16T09:00:27;3.90;;;2.80;;
19778;SDS011;10049;59.306;18.090;2023-05-16T09:02:55;3.67;;;2.50;;
19778;SDS011;10049;59.306;18.090;2023-05-16T09:05:24;2.67;;;2.47;;
19778;SDS011;10049;59.306;18.090;2023-05-16T09:07:52;2.50;;;2.25;;
19778;SDS011;10049;59.306;18.090;2023-05-16T09:10:21;3.67;;;2.88;;
19778;SDS011;10049;59.306;18.090;2023-05-16T09:12:49;2.67;;;2.47;;
19778;SDS011;10049;59.306;18.090;2023-05-16T09:15:17;3.17;;;2.33;;
19778;SDS011;10049;59.306;18.090;2023-05-16T09:17:45;3.38;;;2.58;;
19778;SDS011;10049;59.306;18.090;2023-05-16T09:20:14;4.18;;;2.50;;
19778;SDS011;10049;59.306;18.090;2023-05-16T09:22:49;2.92;;;2.60;;
19778;SDS011;10049;59.306;18.090;2023-05-16T09:25:18;2.83;;;2.58;;
19778;SDS011;10049;59.306;18.090;2023-05-16T09:27:50;2.45;;;2.10;;
19778;SDS011;10049;59.306;18.090;2023-05-16T09:30:20;3.53;;;2.42;;
19778;SDS011;10049;59.306;18.090;2023-05-16T09:32:50;4.30;;;2.20;;
19778;SDS011;10049;59.306;18.090;2023-05-16T09:35:18;2.47;;;2.20;;
19778;SDS011;10049;59.306;18.090;2023-05-16T09:37:46;2.25;;;1.90;;
19778;SDS011;10049;59.306;18.090;2023-05-16T09:40:14;2.42;;;2.17;;
19778;SDS011;10049;59.306;18.090;2023-05-16T09:42:41;2.47;;;1.85;;
19778;SDS011;10049;59.306;18.090;2023-05-16T09:45:12;1.75;;;1.65;;
19778;SDS011;10049;59.306;18.090;2023-05-16T09:47:40;2.97;;;1.70;;
19778;SDS011;10049;59.306;18.090;2023-05-16T09:50:12;1.80;;;1.65;;
19778;SDS011;10049;59.306;18.090;2023-05-16T09:52:41;2.17;;;1.98;;
19778;SDS011;10049;59.306;18.090;2023-05-16T09:55:09;2.10;;;1.90;;
19778;SDS011;10049;59.306;18.090;2023-05-16T09:57:46;2.45;;;1.75;;
19778;SDS011;10049;59.306;18.090;2023-05-16T10:00:21;1.70;;;1.60;;
19778;SDS011;10049;59.306;18.090;2023-05-16T10:03:08;2.72;;;2.10;;
19778;SDS011;10049;59.306;18.090;2023-05-16T10:05:46;3.95;;;2.05;;
19778;SDS011;10049;59.306;18.090;2023-05-16T10:08:24;1.90;;;1.80;;
19778;SDS011;10049;59.306;18.090;2023-05-16T10:10:53;1.77;;;1.67;;
19778;SDS011;10049;59.306;18.090;2023-05-16T10:13:25;1.98;;;1.80;;
19778;SDS011;10049;59.306;18.090;2023-05-16T10:15:57;1.98;;;1.77;;
19778;SDS011;10049;59.306;18.090;2023-05-16T10:18:28;1.98;;;1.77;;
19778;SDS011;10049;59.306;18.090;2023-05-16T10:21:03;1.70;;;1.50;;
19778;SDS011;10049;59.306;18.090;2023-05-16T10:26:15;3.92;;;1.30;;
19778;SDS011;10049;59.306;18.090;2023-05-16T10:28:43;1.30;;;1.20;;
19778;SDS011;10049;59.306;18.090;2023-05-16T10:31:14;1.40;;;1.30;;
19778;SDS011;10049;59.306;18.090;2023-05-16T10:33:41;1.50;;;1.40;;
19778;SDS011;10049;59.306;18.090;2023-05-16T10:36:11;1.50;;;1.40;;
19778;SDS011;10049;59.306;18.090;2023-05-16T10:38:39;2.45;;;1.20;;
19778;SDS011;10049;59.306;18.090;2023-05-16T10:41:07;3.33;;;1.13;;
19778;SDS011;10049;59.306;18.090;2023-05-16T10:43:34;1.23;;;1.00;;
19778;SDS011;10049;59.306;18.090;2023-05-16T10:46:03;1.33;;;1.20;;
19778;SDS011;10049;59.306;18.090;2023-05-16T10:48:35;1.80;;;1.25;;
19778;SDS011;10049;59.306;18.090;2023-05-16T10:51:18;1.27;;;1.20;;
19778;SDS011;10049;59.306;18.090;2023-05-16T10:53:52;3.00;;;1.27;;
19778;SDS011;10049;59.306;18.090;2023-05-16T10:56:21;1.63;;;1.23;;
19778;SDS011;10049;59.306;18.090;2023-05-16T10:58:50;1.40;;;1.30;;
19778;SDS011;10049;59.306;18.090;2023-05-16T11:01:20;1.52;;;1.10;;
19778;SDS011;10049;59.306;18.090;2023-05-16T11:06:49;1.67;;;1.50;;
19778;SDS011;10049;59.306;18.090;2023-05-16T11:09:19;1.63;;;1.52;;
19778;SDS011;10049;59.306;18.090;2023-05-16T11:11:53;1.70;;;1.60;;
19778;SDS011;10049;59.306;18.090;2023-05-16T11:14:21;1.50;;;1.40;;
19778;SDS011;10049;59.306;18.090;2023-05-16T11:16:59;1.50;;;1.40;;
19778;SDS011;10049;59.306;18.090;2023-05-16T11:19:31;2.22;;;1.75;;
19778;SDS011;10049;59.306;18.090;2023-05-16T11:22:07;2.00;;;1.73;;
19778;SDS011;10049;59.306;18.090;2023-05-16T11:24:48;1.70;;;1.60;;
19778;SDS011;10049;59.306;18.090;2023-05-16T11:27:22;1.60;;;1.50;;
19778;SDS011;10049;59.306;18.090;2023-05-16T11:29:53;1.92;;;1.70;;
19778;SDS011;10049;59.306;18.090;2023-05-16T11:32:25;1.98;;;1.77;;
19778;SDS011;10049;59.306;18.090;2023-05-16T11:34:52;1.90;;;1.80;;
19778;SDS011;10049;59.306;18.090;2023-05-16T11:37:22;1.90;;;1.70;;
19778;SDS011;10049;59.306;18.090;2023-05-16T11:39:49;2.08;;;1.60;;
19778;SDS011;10049;59.306;18.090;2023-05-16T11:42:32;1.65;;;1.55;;
19778;SDS011;10049;59.306;18.090;2023-05-16T11:45:07;1.63;;;1.52;;
19778;SDS011;10049;59.306;18.090;2023-05-16T11:47:37;1.42;;;1.33;;
19778;SDS011;10049;59.306;18.090;2023-05-16T11:50:05;1.73;;;1.50;;
19778;SDS011;10049;59.306;18.090;2023-05-16T11:52:35;1.95;;;1.50;;
19778;SDS011;10049;59.306;18.090;2023-05-16T11:55:05;2.20;;;2.00;;
19778;SDS011;10049;59.306;18.090;2023-05-16T11:57:36;2.38;;;2.15;;
19778;SDS011;10049;59.306;18.090;2023-05-16T12:00:12;2.40;;;2.20;;
19778;SDS011;10049;59.306;18.090;2023-05-16T12:02:42;2.05;;;1.92;;
19778;SDS011;10049;59.306;18.090;2023-05-16T12:05:12;2.00;;;1.80;;
19778;SDS011;10049;59.306;18.090;2023-05-16T12:07:43;2.67;;;1.98;;
19778;SDS011;10049;59.306;18.090;2023-05-16T12:10:11;1.90;;;1.73;;
19778;SDS011;10049;59.306;18.090;2023-05-16T12:12:39;2.05;;;1.80;;
19778;SDS011;10049;59.306;18.090;2023-05-16T12:15:08;2.55;;;2.20;;
19778;SDS011;10049;59.306;18.090;2023-05-16T12:17:38;2.20;;;2.00;;
19778;SDS011;10049;59.306;18.090;2023-05-16T12:20:14;2.10;;;1.90;;
19778;SDS011;10049;59.306;18.090;2023-05-16T12:22:46;2.13;;;1.92;;
19778;SDS011;10049;59.306;18.090;2023-05-16T12:25:20;2.20;;;2.00;;
19778;SDS011;10049;59.306;18.090;2023-05-16T12:27:48;2.20;;;2.00;;
19778;SDS011;10049;59.306;18.090;2023-05-16T12:30:16;2.45;;;2.25;;
19778;SDS011;10049;59.306;18.090;2023-05-16T12:32:43;2.20;;;2.00;;
19778;SDS011;10049;59.306;18.090;2023-05-16T12:35:12;4.25;;;2.20;;
19778;SDS011;10049;59.306;18.090;2023-05-16T12:37:46;4.68;;;2.60;;
19778;SDS011;10049;59.306;18.090;2023-05-16T12:40:16;3.25;;;2.42;;
19778;SDS011;10049;59.306;18.090;2023-05-16T12:42:45;3.05;;;2.47;;
19778;SDS011;10049;59.306;18.090;2023-05-16T12:45:14;2.20;;;2.00;;
19778;SDS011;10049;59.306;18.090;2023-05-16T12:47:43;2.47;;;2.15;;
19778;SDS011;10049;59.306;18.090;2023-05-16T12:50:11;3.38;;;2.70;;
19778;SDS011;10049;59.306;18.090;2023-05-16T12:52:50;3.63;;;2.80;;
19778;SDS011;10049;59.306;18.090;2023-05-16T12:55:20;2.67;;;2.47;;
19778;SDS011;10049;59.306;18.090;2023-05-16T12:57:50;2.63;;;2.40;;
19778;SDS011;10049;59.306;18.090;2023-05-16T13:00:18;3.13;;;2.58;;
19778;SDS011;10049;59.306;18.090;2023-05-16T13:02:45;2.92;;;2.60;;
19778;SDS011;10049;59.306;18.090;2023-05-16T13:05:14;2.50;;;2.30;;
19778;SDS011;10049;59.306;18.090;2023-05-16T13:07:43;3.65;;;2.58;;
19778;SDS011;10049;59.306;18.090;2023-05-16T13:10:12;2.90;;;2.53;;
19778;SDS011;10049;59.306;18.090;2023-05-16T13:12:40;3.00;;;2.63;;
19778;SDS011;10049;59.306;18.090;2023-05-16T13:15:08;2.90;;;2.42;;
19778;SDS011;10049;59.306;18.090;2023-05-16T13:17:38;2.72;;;2.53;;
19778;SDS011;10049;59.306;18.090;2023-05-16T13:20:08;3.03;;;2.50;;
19778;SDS011;10049;59.306;18.090;2023-05-16T13:22:37;3.00;;;2.10;;
19778;SDS011;10049;59.306;18.090;2023-05-16T13:25:07;3.42;;;2.35;;
19778;SDS011;10049;59.306;18.090;2023-05-16T13:27:37;2.90;;;2.33;;
19778;SDS011;10049;59.306;18.090;2023-05-16T13:30:07;3.30;;;2.50;;
19778;SDS011;10049;59.306;18.090;2023-05-16T13:32:35;4.30;;;2.60;;
19778;SDS011;10049;59.306;18.090;2023-05-16T13:35:03;4.18;;;2.90;;
19778;SDS011;10049;59.306;18.090;2023-05-16T13:37:31;2.65;;;2.42;;
19778;SDS011;10049;59.306;18.090;2023-05-16T13:39:58;3.28;;;2.60;;
19778;SDS011;10049;59.306;18.090;2023-05-16T13:42:27;3.00;;;2.70;;
19778;SDS011;10049;59.306;18.090;2023-05-16T13:44:56;3.55;;;2.47;;
19778;SDS011;10049;59.306;18.090;2023-05-16T13:47:27;3.00;;;2.65;;
19778;SDS011;10049;59.306;18.090;2023-05-16T13:49:57;3.03;;;2.58;;
19778;SDS011;10049;59.306;18.090;2023-05-16T13:52:28;3.13;;;2.72;;
19778;SDS011;10049;59.306;18.090;2023-05-16T13:54:56;3.78;;;2.85;;
19778;SDS011;10049;59.306;18.090;2023-05-16T13:57:26;4.38;;;2.72;;
19778;SDS011;10049;59.306;18.090;2023-05-16T13:59:55;3.20;;;2.40;;
19778;SDS011;10049;59.306;18.090;2023-05-16T14:02:23;6.03;;;2.38;;
19778;SDS011;10049;59.306;18.090;2023-05-16T14:05:05;3.05;;;2.70;;
19778;SDS011;10049;59.306;18.090;2023-05-16T14:07:35;5.05;;;2.80;;
19778;SDS011;10049;59.306;18.090;2023-05-16T14:10:03;3.33;;;2.90;;
19778;SDS011;10049;59.306;18.090;2023-05-16T14:12:31;3.08;;;2.70;;
19778;SDS011;10049;59.306;18.090;2023-05-16T14:15:00;3.20;;;2.80;;
19778;SDS011;10049;59.306;18.090;2023-05-16T14:17:28;3.28;;;2.97;;
19778;SDS011;10049;59.306;18.090;2023-05-16T14:19:58;3.30;;;2.67;;
19778;SDS011;10049;59.306;18.090;2023-05-16T14:22:25;3.78;;;2.85;;
19778;SDS011;10049;59.306;18.090;2023-05-16T14:24:54;4.95;;;2.70;;
19778;SDS011;10049;59.306;18.090;2023-05-16T14:27:23;7.38;;;2.90;;
19778;SDS011;10049;59.306;18.090;2023-05-16T14:29:53;3.45;;;2.55;;
19778;SDS011;10049;59.306;18.090;2023-05-16T14:32:26;3.67;;;2.70;;
19778;SDS011;10049;59.306;18.090;2023-05-16T14:34:57;3.50;;;2.85;;
19778;SDS011;10049;59.306;18.090;2023-05-16T14:37:24;11.13;;;2.70;;
19778;SDS011;10049;59.306;18.090;2023-05-16T14:39:54;3.20;;;2.78;;
19778;SDS011;10049;59.306;18.090;2023-05-16T14:42:23;5.22;;;2.78;;
19778;SDS011;10049;59.306;18.090;2023-05-16T14:45:07;3.72;;;2.90;;
19778;SDS011;10049;59.306;18.090;2023-05-16T14:47:36;4.15;;;2.90;;
19778;SDS011;10049;59.306;18.090;2023-05-16T14:50:09;2.80;;;2.50;;
19778;SDS011;10049;59.306;18.090;2023-05-16T14:52:39;2.83;;;2.40;;
19778;SDS011;10049;59.306;18.090;2023-05-16T14:55:08;4.25;;;3.00;;